Time;durP1;ratioP1;P1;durP2;ratioP2;P2;SDS_P1;SDS_P2;PMS_P1;PMS_P2;Temp;Humidity;BMP_temperature;BMP_pressure;BME280_temperature;BME280_humidity;BME280_pressure;Samples;Min_cycle;Max_cycle;Signal;HPM_P1;HPM_P2
2023/12/29 00:02:20;;;;;;;13.65;6.45;;;9.10;99.90;;;;;;4983038;28;20113;-93
2023/12/29 00:04:46;;;;;;;10.40;5.97;;;9.10;99.90;;;;;;4983185;28;20018;-93
2023/12/29 00:07:11;;;;;;;10.45;6.18;;;9.10;99.90;;;;;;4996695;28;20033;-93
2023/12/29 00:09:40;;;;;;;8.80;5.63;;;9.10;99.90;;;;;;4981555;28;20061;-93
2023/12/29 00:12:07;;;;;;;11.60;5.60;;;9.10;99.90;;;;;;4982046;28;20029;-93
2023/12/29 00:14:33;;;;;;;8.77;5.43;;;9.10;99.90;;;;;;4979742;28;20026;-93
2023/12/29 00:16:59;;;;;;;12.20;6.10;;;9.10;99.90;;;;;;4999028;28;20023;-93
2023/12/29 00:19:25;;;;;;;13.55;6.45;;;9.10;99.90;;;;;;4983225;28;20050;-93
2023/12/29 00:21:51;;;;;;;11.60;7.03;;;9.10;99.90;;;;;;4982009;28;20022;-94
2023/12/29 00:24:17;;;;;;;14.55;6.47;;;9.10;99.90;;;;;;4981340;28;20030;-93
2023/12/29 00:26:42;;;;;;;13.82;6.45;;;9.10;99.90;;;;;;4980955;28;20026;-93
2023/12/29 00:29:08;;;;;;;11.90;6.63;;;9.10;99.90;;;;;;4998415;28;20031;-93
2023/12/29 00:31:34;;;;;;;12.52;6.10;;;9.10;99.90;;;;;;4981151;28;20116;-94
2023/12/29 00:33:59;;;;;;;14.35;5.70;;;9.10;99.90;;;;;;4980418;28;20023;-94
2023/12/29 00:36:25;;;;;;;13.27;5.88;;;9.10;99.90;;;;;;4981595;28;20035;-93
2023/12/29 00:38:50;;;;;;;12.25;6.15;;;9.10;99.90;;;;;;4981925;28;20018;-94
2023/12/29 00:41:16;;;;;;;11.02;5.57;;;9.10;99.90;;;;;;4998645;28;20030;-94
2023/12/29 00:43:41;;;;;;;13.30;6.13;;;9.10;99.90;;;;;;4986278;28;20018;-93
2023/12/29 00:46:08;;;;;;;14.43;6.13;;;9.10;99.90;;;;;;4981552;28;20081;-93
2023/12/29 00:48:34;;;;;;;14.52;6.50;;;9.10;99.90;;;;;;4982048;28;20097;-93
2023/12/29 00:51:03;;;;;;;13.80;6.07;;;9.10;99.90;;;;;;4998677;28;20444;-93
2023/12/29 00:53:32;;;;;;;12.27;5.78;;;9.10;99.90;;;;;;4979235;28;20027;-93
2023/12/29 00:55:58;;;;;;;9.50;5.40;;;9.10;99.90;;;;;;4997791;28;20034;-94
2023/12/29 00:58:24;;;;;;;12.15;6.45;;;9.10;99.90;;;;;;4977876;28;20034;-93
2023/12/29 01:00:50;;;;;;;12.35;6.53;;;9.20;99.90;;;;;;4998575;28;20278;-94
2023/12/29 01:03:15;;;;;;;12.20;5.85;;;9.10;99.90;;;;;;4980448;28;20022;-95
2023/12/29 01:05:41;;;;;;;11.65;6.43;;;9.10;99.90;;;;;;4980576;28;20032;-93
2023/12/29 01:08:06;;;;;;;11.07;5.22;;;9.10;99.90;;;;;;4989142;28;20105;-93
2023/12/29 01:10:32;;;;;;;10.68;6.30;;;9.10;99.90;;;;;;4981425;28;20025;-93
2023/12/29 01:12:57;;;;;;;9.15;5.30;;;9.10;99.90;;;;;;4981342;28;20084;-93
2023/12/29 01:15:23;;;;;;;10.85;5.75;;;9.10;99.90;;;;;;4985988;28;20107;-93
2023/12/29 01:17:48;;;;;;;9.23;5.82;;;9.10;99.90;;;;;;4982300;28;20198;-93
2023/12/29 01:20:14;;;;;;;8.23;5.22;;;9.10;99.90;;;;;;4984378;28;20022;-94
2023/12/29 01:22:39;;;;;;;11.57;6.78;;;9.10;99.90;;;;;;4986980;28;20057;-92
2023/12/29 01:25:05;;;;;;;9.27;5.40;;;9.10;99.90;;;;;;4978490;28;20048;-93
2023/12/29 01:27:31;;;;;;;13.60;6.85;;;9.10;99.90;;;;;;4987018;28;20030;-92
2023/12/29 01:29:56;;;;;;;12.48;5.85;;;9.10;99.90;;;;;;4980542;28;20030;-94
2023/12/29 01:32:22;;;;;;;10.38;5.32;;;9.10;99.90;;;;;;4984318;28;20019;-94
2023/12/29 01:34:48;;;;;;;10.63;6.40;;;9.10;99.90;;;;;;4979591;28;20467;-93
2023/12/29 01:37:14;;;;;;;11.00;5.40;;;9.10;99.90;;;;;;4997263;28;20030;-93
2023/12/29 01:39:40;;;;;;;9.35;5.78;;;9.10;99.90;;;;;;4978559;28;20027;-94
2023/12/29 01:42:06;;;;;;;11.60;6.25;;;9.10;99.90;;;;;;4997245;28;20026;-94
2023/12/29 01:44:32;;;;;;;9.82;5.32;;;9.10;99.90;;;;;;4996532;28;20026;-93
2023/12/29 01:47:00;;;;;;;11.15;5.47;;;9.10;99.90;;;;;;4980274;28;20104;-94
2023/12/29 01:49:27;;;;;;;9.60;5.65;;;9.10;99.90;;;;;;4980393;28;20030;-93
2023/12/29 01:51:57;;;;;;;9.07;5.53;;;9.10;99.90;;;;;;4974127;28;20029;-93
2023/12/29 01:54:27;;;;;;;15.57;6.28;;;9.10;99.90;;;;;;4980068;28;20049;-93
2023/12/29 01:56:56;;;;;;;12.35;6.25;;;9.10;99.90;;;;;;4980050;28;20026;-93
2023/12/29 01:59:23;;;;;;;9.40;5.18;;;9.10;99.90;;;;;;4980825;28;20037;-94
2023/12/29 02:01:48;;;;;;;12.40;6.68;;;9.10;99.90;;;;;;4980902;28;20050;-93
2023/12/29 02:04:15;;;;;;;9.35;5.60;;;9.10;99.90;;;;;;4979415;28;20030;-94
2023/12/29 02:06:41;;;;;;;10.82;5.75;;;9.10;99.90;;;;;;4996731;28;20077;-93
2023/12/29 02:09:07;;;;;;;18.13;5.22;;;9.10;99.90;;;;;;4979630;28;20032;-92
2023/12/29 02:11:32;;;;;;;11.60;6.22;;;9.10;99.90;;;;;;4996854;28;20101;-93
2023/12/29 02:14:02;;;;;;;11.70;5.80;;;9.10;99.90;;;;;;4979202;28;20475;-94
2023/12/29 02:16:39;;;;;;;14.27;6.40;;;9.10;99.90;;;;;;4978840;28;20484;-93
2023/12/29 02:19:35;;;;;;;11.43;6.30;;;9.10;99.90;;;;;;4972263;28;20513;-93
2023/12/29 02:22:00;;;;;;;10.48;5.82;;;9.10;99.90;;;;;;4968761;28;20038;-94
2023/12/29 02:24:26;;;;;;;9.95;5.85;;;9.10;99.90;;;;;;4978898;28;20034;-94
2023/12/29 02:27:02;;;;;;;10.95;6.28;;;9.10;99.90;;;;;;4979235;28;20027;-93
2023/12/29 02:29:31;;;;;;;11.02;5.88;;;9.10;99.90;;;;;;4979065;28;20125;-94
2023/12/29 02:31:59;;;;;;;11.55;6.32;;;9.10;99.90;;;;;;4976051;28;20030;-93
2023/12/29 02:34:25;;;;;;;14.05;6.32;;;9.10;99.90;;;;;;4975715;28;20031;-93
2023/12/29 02:36:51;;;;;;;13.88;6.28;;;9.10;99.90;;;;;;4978839;28;20489;-93
2023/12/29 02:39:17;;;;;;;10.52;5.70;;;9.10;99.90;;;;;;4985406;28;20061;-93
2023/12/29 02:41:43;;;;;;;10.20;6.18;;;9.10;99.90;;;;;;4996403;28;20113;-93
2023/12/29 02:44:09;;;;;;;10.13;5.78;;;9.10;99.90;;;;;;4979222;28;20015;-93
2023/12/29 02:46:35;;;;;;;11.75;6.28;;;9.10;99.90;;;;;;4979845;28;20034;-96
2023/12/29 02:49:00;;;;;;;14.38;6.75;;;9.10;99.90;;;;;;4975731;28;20465;-93
2023/12/29 02:51:26;;;;;;;10.30;6.13;;;9.10;99.90;;;;;;4996858;28;20093;-94
2023/12/29 02:53:51;;;;;;;9.88;6.10;;;9.10;99.90;;;;;;4979179;28;20072;-92
2023/12/29 02:56:17;;;;;;;13.02;6.88;;;9.10;99.90;;;;;;4976144;28;20031;-94
2023/12/29 02:58:42;;;;;;;10.35;5.97;;;9.10;99.90;;;;;;4994684;28;20026;-93
2023/12/29 03:01:08;;;;;;;11.77;6.28;;;9.10;99.90;;;;;;4996962;28;20015;-95
2023/12/29 03:03:34;;;;;;;10.50;6.57;;;9.10;99.90;;;;;;4975802;28;20027;-93
2023/12/29 03:05:59;;;;;;;14.68;6.47;;;9.10;99.90;;;;;;4978825;28;20026;-94
2023/12/29 03:08:25;;;;;;;15.15;6.38;;;9.10;99.90;;;;;;4979271;28;20030;-94
2023/12/29 03:10:50;;;;;;;13.80;6.82;;;9.20;99.90;;;;;;4978789;28;20022;-93
2023/12/29 03:13:16;;;;;;;12.00;6.60;;;9.10;99.90;;;;;;4983467;28;20391;-93
2023/12/29 03:15:42;;;;;;;10.50;6.47;;;9.20;99.90;;;;;;4971688;28;20031;-93
2023/12/29 03:18:07;;;;;;;12.13;7.25;;;9.10;99.90;;;;;;4998678;28;20037;-93
2023/12/29 03:20:33;;;;;;;14.23;6.97;;;9.10;99.90;;;;;;4986914;28;20032;-93
2023/12/29 03:22:59;;;;;;;15.25;7.20;;;9.10;99.90;;;;;;4989763;28;20637;-94
2023/12/29 03:25:24;;;;;;;11.55;6.57;;;9.10;99.90;;;;;;4999871;28;20082;-93
2023/12/29 03:27:50;;;;;;;11.63;7.07;;;9.10;99.90;;;;;;4982093;28;20030;-93
2023/12/29 03:30:15;;;;;;;12.27;6.07;;;9.10;99.90;;;;;;5000248;28;20019;-94
2023/12/29 03:32:41;;;;;;;12.15;6.85;;;9.10;99.90;;;;;;4998779;28;20435;-93
2023/12/29 03:35:06;;;;;;;13.90;7.22;;;9.10;99.90;;;;;;4981284;28;20034;-95
2023/12/29 03:37:32;;;;;;;10.70;6.80;;;9.10;99.90;;;;;;4982306;28;20503;-93
2023/12/29 03:39:57;;;;;;;15.27;7.00;;;9.10;99.90;;;;;;4999272;28;20030;-94
2023/12/29 03:42:23;;;;;;;12.05;6.47;;;9.10;99.90;;;;;;4999530;28;20081;-93
2023/12/29 03:44:48;;;;;;;9.30;6.18;;;9.20;99.90;;;;;;4985101;28;20041;-93
2023/12/29 03:47:14;;;;;;;10.55;6.57;;;9.10;99.90;;;;;;4982387;28;20090;-93
2023/12/29 03:49:40;;;;;;;11.45;6.68;;;9.20;99.90;;;;;;4987123;28;20058;-94
2023/12/29 03:52:05;;;;;;;12.52;7.45;;;9.20;99.90;;;;;;4998934;28;20432;-94
2023/12/29 03:54:31;;;;;;;13.80;6.80;;;9.10;99.90;;;;;;4981797;28;20030;-93
2023/12/29 03:56:56;;;;;;;14.63;7.18;;;9.10;99.90;;;;;;4981468;28;20053;-93
2023/12/29 03:59:22;;;;;;;16.67;7.43;;;9.10;99.90;;;;;;4991656;28;20027;-93
2023/12/29 04:01:47;;;;;;;14.25;7.20;;;9.10;99.90;;;;;;4992605;28;20031;-94
2023/12/29 04:04:13;;;;;;;14.63;7.38;;;9.10;99.90;;;;;;4981539;28;20041;-93
2023/12/29 04:06:38;;;;;;;13.10;7.13;;;9.20;99.90;;;;;;4980184;28;20034;-94
2023/12/29 04:09:04;;;;;;;14.57;7.53;;;9.10;99.90;;;;;;4980876;28;20014;-93
2023/12/29 04:11:30;;;;;;;14.88;7.47;;;9.10;99.90;;;;;;4981325;28;20029;-93
2023/12/29 04:13:56;;;;;;;16.35;8.10;;;9.10;99.90;;;;;;4981308;28;20025;-93
2023/12/29 04:16:21;;;;;;;12.80;7.43;;;9.20;99.90;;;;;;4997855;28;20049;-93
2023/12/29 04:18:47;;;;;;;14.18;7.40;;;9.10;99.90;;;;;;4998363;28;20084;-94
2023/12/29 04:21:15;;;;;;;14.52;7.68;;;9.10;99.90;;;;;;4980655;28;20117;-93
2023/12/29 04:23:44;;;;;;;12.90;7.05;;;9.10;99.90;;;;;;4997715;28;20031;-93
2023/12/29 04:26:10;;;;;;;12.65;6.22;;;9.20;99.90;;;;;;4980912;28;20651;-94
2023/12/29 04:28:35;;;;;;;15.68;7.25;;;9.20;99.90;;;;;;4981060;28;20080;-94
2023/12/29 04:31:01;;;;;;;13.73;6.95;;;9.20;99.90;;;;;;4980674;28;20084;-93
2023/12/29 04:33:26;;;;;;;17.45;8.55;;;9.10;99.90;;;;;;4988319;28;20030;-94
2023/12/29 04:35:52;;;;;;;11.70;6.70;;;9.20;99.90;;;;;;4980891;28;20030;-94
2023/12/29 04:38:19;;;;;;;15.48;8.02;;;9.10;99.90;;;;;;4985643;28;20090;-93
2023/12/29 04:40:46;;;;;;;20.00;7.88;;;9.20;99.90;;;;;;4977954;28;20567;-94
2023/12/29 04:43:12;;;;;;;13.23;6.38;;;9.10;99.90;;;;;;4982233;28;20033;-94
2023/12/29 04:45:38;;;;;;;18.10;7.55;;;9.10;99.90;;;;;;4978781;28;20065;-93
2023/12/29 04:48:04;;;;;;;14.52;7.38;;;9.10;99.90;;;;;;4979970;28;20030;-94
2023/12/29 04:50:29;;;;;;;11.70;6.85;;;9.10;99.90;;;;;;4978146;28;20036;-93
2023/12/29 04:52:55;;;;;;;17.02;7.03;;;9.10;99.90;;;;;;4980208;28;20488;-94
2023/12/29 04:55:20;;;;;;;12.90;7.00;;;9.10;99.90;;;;;;4981968;28;20113;-94
2023/12/29 04:57:46;;;;;;;15.98;7.57;;;9.10;99.90;;;;;;4980953;28;20073;-94
2023/12/29 05:00:12;;;;;;;16.17;7.38;;;9.10;99.90;;;;;;4979108;28;20029;-94
2023/12/29 05:02:38;;;;;;;12.00;7.20;;;9.10;99.90;;;;;;4979999;28;20034;-93
2023/12/29 05:05:04;;;;;;;16.42;7.07;;;9.10;99.90;;;;;;4986350;28;20026;-93
2023/12/29 05:07:30;;;;;;;15.50;6.88;;;9.10;99.90;;;;;;4980755;28;20026;-94
2023/12/29 05:09:55;;;;;;;12.55;6.72;;;9.10;99.90;;;;;;4983449;28;20029;-93
2023/12/29 05:12:21;;;;;;;15.27;7.13;;;9.10;99.90;;;;;;4980617;28;20033;-94
2023/12/29 05:14:46;;;;;;;12.68;7.18;;;9.10;99.90;;;;;;4980201;28;20033;-93
2023/12/29 05:17:12;;;;;;;11.85;6.35;;;9.10;99.90;;;;;;4997704;28;20026;-94
2023/12/29 05:19:37;;;;;;;17.73;7.07;;;9.10;99.90;;;;;;4979959;28;20046;-93
2023/12/29 05:22:03;;;;;;;13.35;6.93;;;9.10;99.90;;;;;;4997089;28;20447;-93
2023/12/29 05:24:28;;;;;;;16.90;7.38;;;9.10;99.90;;;;;;4984388;28;20033;-94
2023/12/29 05:26:54;;;;;;;14.25;7.38;;;9.10;99.90;;;;;;4979309;28;20073;-94
2023/12/29 05:29:20;;;;;;;14.30;6.90;;;9.10;99.90;;;;;;4997313;28;20077;-93
2023/12/29 05:31:45;;;;;;;11.55;7.07;;;9.10;99.90;;;;;;4976665;28;20252;-94
2023/12/29 05:34:11;;;;;;;15.07;7.30;;;9.10;99.90;;;;;;4979680;28;20472;-93
2023/12/29 05:36:37;;;;;;;13.68;7.10;;;9.10;99.90;;;;;;4980658;28;20030;-93
2023/12/29 05:39:03;;;;;;;12.10;6.53;;;9.10;99.90;;;;;;4978704;28;20022;-94
2023/12/29 05:41:29;;;;;;;13.00;6.72;;;9.10;99.90;;;;;;4978225;28;20027;-94
2023/12/29 05:43:54;;;;;;;11.40;7.20;;;9.10;99.90;;;;;;4978026;28;20033;-94
2023/12/29 05:46:20;;;;;;;9.77;6.53;;;9.10;99.90;;;;;;4978742;28;20023;-93
2023/12/29 05:48:46;;;;;;;14.27;6.78;;;9.10;99.90;;;;;;4977640;28;20022;-92
2023/12/29 05:51:15;;;;;;;15.05;7.15;;;9.00;99.90;;;;;;4976461;28;20026;-93
2023/12/29 05:53:41;;;;;;;14.48;7.03;;;9.00;99.90;;;;;;4971260;28;20045;-92
2023/12/29 05:56:06;;;;;;;10.48;6.10;;;9.00;99.90;;;;;;4976788;28;20400;-92
2023/12/29 05:58:32;;;;;;;10.35;6.78;;;9.10;99.90;;;;;;4979401;28;20030;-88
2023/12/29 06:01:01;;;;;;;16.75;7.28;;;9.00;99.90;;;;;;4997082;28;20106;-93
2023/12/29 06:03:27;;;;;;;13.43;6.93;;;9.00;99.90;;;;;;4997147;28;20112;-88
2023/12/29 06:05:53;;;;;;;13.88;6.65;;;9.10;99.90;;;;;;4975706;28;20531;-91
2023/12/29 06:08:19;;;;;;;12.63;6.78;;;9.10;99.90;;;;;;4976310;28;20030;-91
2023/12/29 06:10:44;;;;;;;16.13;6.45;;;9.00;99.90;;;;;;4975535;28;20025;-92
2023/12/29 06:13:10;;;;;;;11.75;6.68;;;9.00;99.90;;;;;;4980778;28;20027;-91
2023/12/29 06:15:36;;;;;;;9.93;6.40;;;9.00;99.90;;;;;;4979260;28;20026;-90
2023/12/29 06:18:02;;;;;;;20.77;7.28;;;9.00;99.90;;;;;;4984007;28;20026;-94
2023/12/29 06:20:27;;;;;;;4.82;3.08;;;9.10;99.90;;;;;;4974682;28;20053;-83
2023/12/29 06:22:53;;;;;;;6.18;3.45;;;10.00;99.90;;;;;;4974342;28;20034;-89
2023/12/29 06:25:19;;;;;;;6.47;3.97;;;10.60;99.90;;;;;;4975361;28;20106;-89
2023/12/29 06:27:44;;;;;;;7.50;4.43;;;9.90;99.90;;;;;;4975435;28;20030;-90
2023/12/29 06:30:10;;;;;;;8.70;4.63;;;9.50;99.90;;;;;;4975763;28;20026;-90
2023/12/29 06:32:36;;;;;;;10.43;5.03;;;9.30;99.90;;;;;;4992249;28;20062;-91
2023/12/29 06:35:03;;;;;;;13.18;5.40;;;9.20;99.90;;;;;;4992208;28;20054;-91
2023/12/29 06:37:28;;;;;;;9.52;5.28;;;9.10;99.90;;;;;;4977695;28;20037;-89
2023/12/29 06:39:54;;;;;;;12.10;5.85;;;9.10;99.90;;;;;;4985246;28;20030;-85
2023/12/29 06:42:19;;;;;;;8.88;5.32;;;9.10;99.90;;;;;;4984552;28;20508;-95
2023/12/29 06:44:46;;;;;;;11.07;5.50;;;9.10;99.90;;;;;;4979637;28;20034;-96
2023/12/29 06:47:12;;;;;;;11.20;5.53;;;9.10;99.90;;;;;;4981426;28;20022;-94
2023/12/29 06:49:38;;;;;;;9.02;5.32;;;9.10;99.90;;;;;;4979377;28;20022;-95
2023/12/29 06:52:04;;;;;;;9.73;5.57;;;9.10;99.90;;;;;;5003881;28;20023;-95
2023/12/29 06:54:30;;;;;;;13.02;6.07;;;9.10;99.90;;;;;;4981351;28;20222;-94
2023/12/29 06:56:56;;;;;;;11.43;5.72;;;9.10;99.90;;;;;;4982612;28;20031;-92
2023/12/29 06:59:22;;;;;;;10.30;5.60;;;9.10;99.90;;;;;;4983253;28;20033;-93
2023/12/29 07:01:48;;;;;;;10.75;6.10;;;9.10;99.90;;;;;;5001683;28;20030;-94
2023/12/29 07:04:15;;;;;;;9.82;5.43;;;9.10;99.90;;;;;;5000817;28;20050;-94
2023/12/29 07:06:41;;;;;;;8.00;5.35;;;9.10;99.90;;;;;;4981836;28;20499;-95
2023/12/29 07:09:07;;;;;;;10.02;5.53;;;9.10;99.90;;;;;;4985352;28;20034;-94
2023/12/29 07:11:33;;;;;;;11.05;5.50;;;9.10;99.90;;;;;;4983747;28;20090;-94
2023/12/29 07:13:59;;;;;;;11.02;5.30;;;9.10;99.90;;;;;;5001521;28;20057;-95
2023/12/29 07:16:24;;;;;;;12.48;5.07;;;9.10;99.90;;;;;;4985374;28;20061;-94
2023/12/29 07:18:50;;;;;;;10.15;5.50;;;9.10;99.90;;;;;;4999940;28;20043;-95
2023/12/29 07:21:17;;;;;;;9.30;5.00;;;9.10;99.90;;;;;;4990583;28;20071;-94
2023/12/29 07:23:42;;;;;;;9.48;6.00;;;9.10;99.90;;;;;;5000372;28;20465;-94
2023/12/29 07:26:08;;;;;;;10.52;5.22;;;9.10;99.90;;;;;;5000894;28;20109;-95
2023/12/29 07:28:34;;;;;;;13.20;5.32;;;9.10;99.90;;;;;;4983565;28;20026;-94
2023/12/29 07:31:00;;;;;;;11.60;5.35;;;9.00;99.90;;;;;;4984020;28;20029;-93
2023/12/29 07:33:25;;;;;;;9.15;5.53;;;9.10;99.90;;;;;;4984716;28;20026;-95
2023/12/29 07:35:51;;;;;;;8.30;5.25;;;9.00;99.90;;;;;;4984445;28;20023;-94
2023/12/29 07:38:17;;;;;;;9.40;5.38;;;9.10;99.90;;;;;;4987572;28;20073;-93
2023/12/29 07:40:42;;;;;;;8.77;5.05;;;9.10;99.90;;;;;;4984765;28;20023;-94
2023/12/29 07:43:08;;;;;;;10.18;5.25;;;9.10;99.90;;;;;;5001307;28;20413;-93
2023/12/29 07:45:34;;;;;;;10.43;5.78;;;9.00;99.90;;;;;;5003017;28;20373;-93
2023/12/29 07:48:00;;;;;;;11.13;5.00;;;9.10;99.90;;;;;;4985166;28;20026;-93
2023/12/29 07:50:25;;;;;;;9.38;4.88;;;9.10;99.90;;;;;;4985076;28;20082;-94
2023/12/29 07:52:51;;;;;;;7.32;4.95;;;9.10;99.90;;;;;;5003386;28;20030;-94
2023/12/29 07:55:16;;;;;;;6.53;4.53;;;9.00;99.90;;;;;;4982909;28;20045;-93
2023/12/29 07:57:43;;;;;;;9.18;4.90;;;9.10;99.90;;;;;;4978793;28;20023;-94
2023/12/29 08:00:09;;;;;;;7.40;4.90;;;9.10;99.90;;;;;;4996220;28;20482;-94
2023/12/29 08:02:35;;;;;;;11.07;5.43;;;9.10;99.90;;;;;;4978110;28;20018;-94
2023/12/29 08:05:01;;;;;;;10.95;5.35;;;9.20;99.90;;;;;;4980066;28;20041;-94
2023/12/29 08:07:26;;;;;;;10.45;5.55;;;9.20;99.90;;;;;;4980803;28;20022;-94
2023/12/29 08:09:52;;;;;;;8.77;4.90;;;9.20;99.90;;;;;;4978750;28;20042;-94
2023/12/29 08:12:17;;;;;;;8.27;5.05;;;9.20;99.90;;;;;;4980197;28;20029;-94
2023/12/29 08:14:43;;;;;;;9.85;5.55;;;9.20;99.90;;;;;;4996143;28;20041;-94
2023/12/29 08:17:09;;;;;;;9.85;5.47;;;9.20;99.90;;;;;;4982477;28;20096;-94
2023/12/29 08:19:34;;;;;;;10.30;5.38;;;9.20;99.90;;;;;;4977095;28;20026;-94
2023/12/29 08:22:00;;;;;;;8.85;5.07;;;9.30;99.90;;;;;;4982533;28;20689;-94
2023/12/29 08:24:25;;;;;;;9.52;4.68;;;9.30;99.90;;;;;;4988297;28;20026;-93
2023/12/29 08:26:51;;;;;;;7.93;5.07;;;9.30;99.90;;;;;;4996384;28;20036;-94
2023/12/29 08:29:17;;;;;;;8.57;5.55;;;9.30;99.90;;;;;;4996549;28;20030;-94
2023/12/29 08:31:43;;;;;;;11.60;5.65;;;9.30;99.90;;;;;;4983611;28;20065;-94
2023/12/29 08:34:09;;;;;;;7.82;4.65;;;9.30;99.90;;;;;;4985476;28;20049;-95
2023/12/29 08:36:35;;;;;;;8.80;4.95;;;9.30;99.90;;;;;;4981414;28;20058;-94
2023/12/29 08:39:01;;;;;;;7.63;4.80;;;9.20;99.90;;;;;;4983071;28;20033;-94
2023/12/29 08:41:27;;;;;;;8.48;4.88;;;9.20;99.90;;;;;;4981587;28;20068;-94
2023/12/29 08:43:53;;;;;;;12.73;5.40;;;9.20;99.90;;;;;;4979654;28;20117;-94
2023/12/29 08:46:19;;;;;;;10.25;4.90;;;9.20;99.90;;;;;;4981006;28;20121;-94
2023/12/29 08:48:46;;;;;;;9.20;5.03;;;9.30;99.90;;;;;;4996297;28;20022;-94
2023/12/29 08:51:12;;;;;;;11.82;5.05;;;9.20;99.90;;;;;;4988345;28;20015;-95
2023/12/29 08:53:37;;;;;;;10.77;4.75;;;9.20;99.90;;;;;;4983046;28;20109;-92
2023/12/29 08:56:03;;;;;;;8.93;4.95;;;9.20;99.90;;;;;;4979254;28;20027;-93
2023/12/29 08:58:29;;;;;;;6.32;4.20;;;9.20;99.90;;;;;;4980202;28;20462;-95
2023/12/29 09:00:55;;;;;;;9.80;4.85;;;9.30;99.90;;;;;;4982745;28;20026;-95
2023/12/29 09:03:21;;;;;;;7.13;4.53;;;9.30;99.90;;;;;;4978178;28;20038;-94
2023/12/29 09:05:46;;;;;;;7.20;4.32;;;9.40;99.90;;;;;;4981346;28;20034;-93
2023/12/29 09:08:12;;;;;;;7.10;4.55;;;9.30;99.90;;;;;;4997093;28;20018;-93
2023/12/29 09:10:38;;;;;;;8.95;4.05;;;9.40;99.90;;;;;;4976356;28;20516;-94
2023/12/29 09:13:04;;;;;;;9.50;5.35;;;9.30;99.90;;;;;;4993471;28;20018;-93
2023/12/29 09:15:29;;;;;;;5.93;4.00;;;9.30;99.90;;;;;;4979876;28;20025;-94
2023/12/29 09:17:55;;;;;;;7.10;4.28;;;9.30;99.90;;;;;;4980523;28;20480;-95
2023/12/29 09:20:21;;;;;;;6.00;3.95;;;9.30;99.90;;;;;;4984073;28;20501;-93
2023/12/29 09:22:46;;;;;;;7.35;4.30;;;9.30;99.90;;;;;;4981513;28;20030;-96
2023/12/29 09:25:12;;;;;;;6.05;3.92;;;9.30;99.90;;;;;;4983720;28;20388;-95
2023/12/29 09:27:38;;;;;;;10.70;5.00;;;9.30;99.90;;;;;;4982645;28;20026;-94
2023/12/29 09:30:04;;;;;;;8.98;4.07;;;9.20;99.90;;;;;;4977313;28;20562;-94
2023/12/29 09:32:30;;;;;;;6.72;4.28;;;9.30;99.90;;;;;;4980293;28;20030;-93
2023/12/29 09:34:56;;;;;;;5.85;3.92;;;9.20;99.90;;;;;;4981220;28;20596;-94
2023/12/29 09:37:22;;;;;;;6.47;3.85;;;9.30;99.90;;;;;;4976508;28;20030;-94
2023/12/29 09:39:47;;;;;;;9.68;4.63;;;9.20;99.90;;;;;;4998136;28;20041;-96
2023/12/29 09:42:24;;;;;;;7.50;4.47;;;9.20;99.90;;;;;;4987756;28;20090;-94
2023/12/29 09:44:51;;;;;;;7.85;4.50;;;9.20;99.90;;;;;;4982770;28;20895;-94
2023/12/29 09:47:25;;;;;;;7.22;3.80;;;9.30;99.90;;;;;;4968333;28;20393;-94
2023/12/29 09:49:54;;;;;;;9.05;4.35;;;9.20;99.90;;;;;;4981332;28;20029;-94
2023/12/29 09:52:24;;;;;;;8.98;4.05;;;9.30;99.90;;;;;;4983008;28;20030;-95
2023/12/29 09:54:51;;;;;;;10.23;3.92;;;9.30;99.90;;;;;;4989866;28;20018;-94
2023/12/29 09:57:18;;;;;;;8.00;4.05;;;9.30;99.90;;;;;;4978005;28;20027;-94
2023/12/29 09:59:44;;;;;;;7.72;4.68;;;9.40;99.90;;;;;;4983597;28;20452;-94
2023/12/29 10:02:17;;;;;;;8.35;4.28;;;9.30;99.90;;;;;;4983116;28;20042;-95
2023/12/29 10:04:42;;;;;;;6.28;4.28;;;9.30;99.90;;;;;;4999005;28;20022;-93
2023/12/29 10:07:10;;;;;;;12.10;4.50;;;9.40;99.90;;;;;;4982965;28;20026;-94
2023/12/29 10:09:37;;;;;;;5.95;3.53;;;9.30;99.90;;;;;;4982029;28;20022;-94
2023/12/29 10:12:05;;;;;;;7.75;4.60;;;9.30;99.90;;;;;;4983202;28;20557;-95
2023/12/29 10:14:54;;;;;;;8.40;3.97;;;9.40;99.90;;;;;;4999161;28;20018;-94
2023/12/29 10:17:34;;;;;;;7.30;4.43;;;9.30;99.90;;;;;;4978556;28;20034;-94
2023/12/29 10:20:20;;;;;;;7.15;4.38;;;9.30;99.90;;;;;;4983914;28;20030;-94
2023/12/29 10:22:54;;;;;;;7.78;4.63;;;9.30;99.90;;;;;;4983784;28;20492;-94
2023/12/29 10:25:23;;;;;;;8.75;4.60;;;9.30;99.90;;;;;;4997950;28;20097;-94
2023/12/29 10:27:48;;;;;;;5.35;3.83;;;9.30;99.90;;;;;;4980948;28;20027;-94
2023/12/29 10:30:15;;;;;;;8.10;4.63;;;9.30;99.90;;;;;;4984148;28;20081;-94
2023/12/29 10:32:41;;;;;;;7.65;4.47;;;9.30;99.90;;;;;;5000360;28;20010;-94
2023/12/29 10:35:12;;;;;;;6.03;4.47;;;9.30;99.90;;;;;;4983644;28;20042;-95
2023/12/29 10:37:38;;;;;;;9.55;4.63;;;9.30;99.90;;;;;;5000935;28;20092;-95
2023/12/29 10:40:05;;;;;;;7.28;4.38;;;9.30;99.90;;;;;;4983928;28;20078;-94
2023/12/29 10:42:31;;;;;;;11.38;4.80;;;9.30;99.90;;;;;;5000681;28;20030;-94
2023/12/29 10:45:07;;;;;;;11.57;5.05;;;9.40;99.90;;;;;;4997102;28;20101;-94
2023/12/29 10:47:34;;;;;;;6.22;4.13;;;9.40;99.90;;;;;;4990355;28;20045;-95
2023/12/29 10:50:03;;;;;;;11.10;4.82;;;9.50;99.90;;;;;;4980676;28;20106;-95
2023/12/29 10:52:29;;;;;;;8.70;4.57;;;9.50;99.90;;;;;;5001182;28;20019;-95
2023/12/29 10:55:05;;;;;;;9.10;4.97;;;9.50;99.90;;;;;;4983318;28;20573;-94
2023/12/29 10:57:32;;;;;;;7.85;4.10;;;9.50;99.90;;;;;;4984855;28;20030;-94
2023/12/29 10:59:58;;;;;;;6.68;4.47;;;9.50;99.90;;;;;;4984691;28;20072;-94
2023/12/29 11:02:23;;;;;;;7.90;4.50;;;9.50;99.90;;;;;;4985423;28;20030;-95
2023/12/29 11:04:50;;;;;;;7.75;4.03;;;9.60;99.90;;;;;;4990217;28;20038;-94
2023/12/29 11:07:30;;;;;;;8.15;4.22;;;9.60;99.90;;;;;;4977131;28;20014;-95
2023/12/29 11:10:03;;;;;;;6.15;3.83;;;9.60;99.90;;;;;;4990824;28;20021;-94
2023/12/29 11:12:34;;;;;;;8.18;4.57;;;9.70;99.90;;;;;;4991326;28;20031;-94
2023/12/29 11:15:05;;;;;;;16.17;4.28;;;9.70;99.90;;;;;;4976558;28;20026;-93
2023/12/29 11:17:33;;;;;;;6.45;4.05;;;9.70;99.90;;;;;;4979120;28;20089;-94
2023/12/29 11:20:00;;;;;;;8.23;4.32;;;9.60;99.90;;;;;;4981400;28;20022;-94
2023/12/29 11:22:28;;;;;;;7.30;4.32;;;9.60;99.90;;;;;;4999270;28;20106;-94
2023/12/29 11:24:54;;;;;;;7.25;4.28;;;9.60;99.90;;;;;;4981442;28;20049;-94
2023/12/29 11:27:21;;;;;;;10.35;4.22;;;9.60;99.90;;;;;;4981957;28;20094;-94
2023/12/29 11:29:47;;;;;;;8.57;4.00;;;9.60;99.90;;;;;;4994127;28;20507;-94
2023/12/29 11:32:22;;;;;;;8.07;4.28;;;9.60;99.90;;;;;;4997759;28;20054;-94
2023/12/29 11:34:54;;;;;;;7.05;3.90;;;9.60;99.90;;;;;;4979227;28;20026;-94
2023/12/29 11:37:49;;;;;;;6.07;4.15;;;9.50;99.90;;;;;;4999767;28;20455;-94
2023/12/29 11:40:21;;;;;;;6.43;3.75;;;9.50;99.90;;;;;;4992595;28;20030;-93
2023/12/29 11:42:51;;;;;;;7.10;3.90;;;9.50;99.90;;;;;;4986231;28;20085;-93
2023/12/29 11:45:34;;;;;;;;;;;9.50;99.90;;;;;;4979403;28;20516;-93
2023/12/29 11:48:02;;;;;;;5.32;3.67;;;9.50;99.90;;;;;;4986305;28;19914;-93
2023/12/29 11:50:30;;;;;;;6.78;3.67;;;9.50;99.90;;;;;;4992765;28;20022;-93
2023/12/29 11:52:56;;;;;;;7.57;3.97;;;9.50;99.90;;;;;;4980073;28;20022;-93
2023/12/29 11:55:27;;;;;;;8.13;3.35;;;9.50;99.90;;;;;;4977401;28;20057;-93
2023/12/29 11:57:53;;;;;;;4.32;3.08;;;9.50;99.90;;;;;;4996784;28;20042;-94
2023/12/29 12:00:19;;;;;;;4.90;3.50;;;9.40;99.90;;;;;;4984695;28;20027;-93
2023/12/29 12:02:44;;;;;;;6.03;3.50;;;9.40;99.90;;;;;;4987638;28;20033;-93
2023/12/29 12:05:10;;;;;;;6.85;3.88;;;9.40;99.90;;;;;;4994987;28;20527;-87
2023/12/29 12:07:36;;;;;;;5.15;3.50;;;9.40;99.90;;;;;;4977182;28;20027;-90
2023/12/29 12:10:21;;;;;;;8.05;3.63;;;9.40;99.90;;;;;;4979564;28;20029;-90
2023/12/29 12:12:51;;;;;;;6.70;4.10;;;9.50;99.90;;;;;;4977663;28;20023;-90
2023/12/29 12:15:32;;;;;;;6.57;3.53;;;9.50;99.90;;;;;;4985291;28;20034;-94
2023/12/29 12:17:59;;;;;;;4.75;3.00;;;9.50;99.90;;;;;;4991405;28;20018;-92
2023/12/29 12:20:26;;;;;;;10.93;3.35;;;10.30;99.90;;;;;;4982867;28;20022;-92
2023/12/29 12:23:02;;;;;;;4.95;3.22;;;10.00;99.90;;;;;;4986715;28;20025;-93
2023/12/29 12:25:36;;;;;;;6.75;3.20;;;9.70;99.90;;;;;;4993494;28;20052;-89
2023/12/29 12:28:06;;;;;;;6.10;3.63;;;9.60;99.90;;;;;;4978111;28;20030;-91
2023/12/29 12:30:36;;;;;;;5.72;3.88;;;9.60;99.90;;;;;;4977604;28;20027;-89
2023/12/29 12:33:04;;;;;;;6.25;3.78;;;9.50;99.90;;;;;;4994998;28;20069;-90
2023/12/29 12:35:30;;;;;;;7.13;3.40;;;9.50;99.90;;;;;;4977113;28;20476;-90
2023/12/29 12:38:21;;;;;;;6.25;4.20;;;9.50;99.90;;;;;;4977292;28;20029;-92
2023/12/29 12:40:47;;;;;;;6.15;3.72;;;9.50;99.90;;;;;;4984139;28;20038;-91
2023/12/29 12:43:17;;;;;;;5.13;3.45;;;9.50;99.90;;;;;;4993926;28;20023;-90
2023/12/29 12:45:54;;;;;;;4.88;3.50;;;9.50;99.90;;;;;;4975238;28;20041;-90
2023/12/29 12:48:23;;;;;;;5.28;3.45;;;9.50;99.90;;;;;;4988048;28;20033;-91
2023/12/29 12:50:49;;;;;;;5.85;3.00;;;9.50;99.90;;;;;;4976577;28;20022;-91